sensor_id;sensor_type;location;lat;lon;timestamp;P1;durP1;ratioP1;P2;durP2;ratioP2
42662;SDS011;44330;51.360;6.686;2023-03-14T00:01:09;12.55;;;2.00;;
42662;SDS011;44330;51.360;6.686;2023-03-14T00:03:39;14.10;;;1.90;;
42662;SDS011;44330;51.360;6.686;2023-03-14T00:06:05;8.23;;;1.80;;
42662;SDS011;44330;51.360;6.686;2023-03-14T00:08:31;9.90;;;1.83;;
42662;SDS011;44330;51.360;6.686;2023-03-14T00:10:57;7.88;;;1.40;;
42662;SDS011;44330;51.360;6.686;2023-03-14T00:13:23;8.05;;;1.90;;
42662;SDS011;44330;51.360;6.686;2023-03-14T00:15:49;8.20;;;1.73;;
42662;SDS011;44330;51.360;6.686;2023-03-14T00:18:14;10.07;;;1.88;;
42662;SDS011;44330;51.360;6.686;2023-03-14T00:20:40;12.90;;;1.40;;
42662;SDS011;44330;51.360;6.686;2023-03-14T00:23:06;9.27;;;1.83;;
42662;SDS011;44330;51.360;6.686;2023-03-14T00:25:31;7.65;;;1.98;;
42662;SDS011;44330;51.360;6.686;2023-03-14T00:27:57;10.57;;;1.70;;
42662;SDS011;44330;51.360;6.686;2023-03-14T00:30:22;8.40;;;1.95;;
42662;SDS011;44330;51.360;6.686;2023-03-14T00:32:48;9.07;;;1.23;;
42662;SDS011;44330;51.360;6.686;2023-03-14T00:35:14;10.93;;;2.25;;
42662;SDS011;44330;51.360;6.686;2023-03-14T00:37:40;11.23;;;2.05;;
42662;SDS011;44330;51.360;6.686;2023-03-14T00:40:06;6.03;;;1.13;;
42662;SDS011;44330;51.360;6.686;2023-03-14T00:42:32;5.57;;;1.92;;
42662;SDS011;44330;51.360;6.686;2023-03-14T00:44:59;5.13;;;1.30;;
42662;SDS011;44330;51.360;6.686;2023-03-14T00:47:24;4.47;;;1.10;;
42662;SDS011;44330;51.360;6.686;2023-03-14T00:49:50;10.00;;;1.73;;
42662;SDS011;44330;51.360;6.686;2023-03-14T00:52:15;4.32;;;0.90;;
42662;SDS011;44330;51.360;6.686;2023-03-14T00:54:41;4.07;;;0.85;;
42662;SDS011;44330;51.360;6.686;2023-03-14T00:57:06;2.55;;;0.98;;
42662;SDS011;44330;51.360;6.686;2023-03-14T00:59:32;7.30;;;1.20;;
42662;SDS011;44330;51.360;6.686;2023-03-14T01:01:57;7.97;;;1.25;;
42662;SDS011;44330;51.360;6.686;2023-03-14T01:04:26;8.05;;;1.75;;
42662;SDS011;44330;51.360;6.686;2023-03-14T01:06:51;7.10;;;1.20;;
42662;SDS011;44330;51.360;6.686;2023-03-14T01:09:17;11.93;;;1.92;;
42662;SDS011;44330;51.360;6.686;2023-03-14T01:11:43;7.70;;;1.42;;
42662;SDS011;44330;51.360;6.686;2023-03-14T01:14:11;10.90;;;1.70;;
42662;SDS011;44330;51.360;6.686;2023-03-14T01:16:37;9.77;;;1.45;;
42662;SDS011;44330;51.360;6.686;2023-03-14T01:19:03;8.50;;;1.73;;
42662;SDS011;44330;51.360;6.686;2023-03-14T01:21:30;8.80;;;1.67;;
42662;SDS011;44330;51.360;6.686;2023-03-14T01:23:58;5.10;;;1.33;;
42662;SDS011;44330;51.360;6.686;2023-03-14T01:28:54;10.68;;;1.15;;
42662;SDS011;44330;51.360;6.686;2023-03-14T01:31:21;6.47;;;1.05;;
42662;SDS011;44330;51.360;6.686;2023-03-14T01:33:47;7.13;;;0.93;;
42662;SDS011;44330;51.360;6.686;2023-03-14T01:36:13;4.35;;;1.00;;
42662;SDS011;44330;51.360;6.686;2023-03-14T01:38:39;6.25;;;0.90;;
42662;SDS011;44330;51.360;6.686;2023-03-14T01:41:05;5.93;;;1.08;;
42662;SDS011;44330;51.360;6.686;2023-03-14T01:43:32;4.55;;;0.85;;
42662;SDS011;44330;51.360;6.686;2023-03-14T01:48:40;4.97;;;1.23;;
42662;SDS011;44330;51.360;6.686;2023-03-14T01:51:15;7.93;;;1.77;;
42662;SDS011;44330;51.360;6.686;2023-03-14T01:53:46;6.13;;;1.10;;
42662;SDS011;44330;51.360;6.686;2023-03-14T01:56:16;8.88;;;1.35;;
42662;SDS011;44330;51.360;6.686;2023-03-14T01:58:44;4.85;;;1.60;;
42662;SDS011;44330;51.360;6.686;2023-03-14T02:01:13;10.93;;;1.73;;
42662;SDS011;44330;51.360;6.686;2023-03-14T02:03:45;10.27;;;1.88;;
42662;SDS011;44330;51.360;6.686;2023-03-14T02:06:17;6.03;;;1.20;;
42662;SDS011;44330;51.360;6.686;2023-03-14T02:08:46;11.70;;;1.65;;
42662;SDS011;44330;51.360;6.686;2023-03-14T02:11:14;16.17;;;1.95;;
42662;SDS011;44330;51.360;6.686;2023-03-14T02:13:40;10.30;;;1.85;;
42662;SDS011;44330;51.360;6.686;2023-03-14T02:16:07;13.27;;;1.60;;
42662;SDS011;44330;51.360;6.686;2023-03-14T02:18:33;12.73;;;1.67;;
42662;SDS011;44330;51.360;6.686;2023-03-14T02:21:11;10.57;;;1.70;;
42662;SDS011;44330;51.360;6.686;2023-03-14T02:26:07;8.98;;;1.83;;
42662;SDS011;44330;51.360;6.686;2023-03-14T02:28:40;7.10;;;1.90;;
42662;SDS011;44330;51.360;6.686;2023-03-14T02:31:06;11.60;;;1.73;;
42662;SDS011;44330;51.360;6.686;2023-03-14T02:33:33;7.97;;;1.60;;
42662;SDS011;44330;51.360;6.686;2023-03-14T02:36:03;11.00;;;1.67;;
42662;SDS011;44330;51.360;6.686;2023-03-14T02:38:44;8.32;;;1.70;;
42662;SDS011;44330;51.360;6.686;2023-03-14T02:41:15;8.77;;;1.70;;
42662;SDS011;44330;51.360;6.686;2023-03-14T02:43:40;8.13;;;1.70;;
42662;SDS011;44330;51.360;6.686;2023-03-14T02:46:07;11.35;;;1.70;;
42662;SDS011;44330;51.360;6.686;2023-03-14T02:48:41;8.30;;;1.50;;
42662;SDS011;44330;51.360;6.686;2023-03-14T02:51:10;9.57;;;1.42;;
42662;SDS011;44330;51.360;6.686;2023-03-14T02:53:36;12.63;;;2.03;;
42662;SDS011;44330;51.360;6.686;2023-03-14T02:56:03;6.82;;;2.13;;
42662;SDS011;44330;51.360;6.686;2023-03-14T02:58:29;12.80;;;1.50;;
42662;SDS011;44330;51.360;6.686;2023-03-14T03:00:55;14.45;;;1.58;;
42662;SDS011;44330;51.360;6.686;2023-03-14T03:03:20;7.20;;;1.60;;
42662;SDS011;44330;51.360;6.686;2023-03-14T03:05:49;5.40;;;1.70;;
42662;SDS011;44330;51.360;6.686;2023-03-14T03:08:17;8.73;;;1.40;;
42662;SDS011;44330;51.360;6.686;2023-03-14T03:10:47;7.25;;;1.25;;
42662;SDS011;44330;51.360;6.686;2023-03-14T03:13:13;8.00;;;1.48;;
42662;SDS011;44330;51.360;6.686;2023-03-14T03:15:39;7.20;;;1.10;;
42662;SDS011;44330;51.360;6.686;2023-03-14T03:18:05;7.10;;;1.13;;
42662;SDS011;44330;51.360;6.686;2023-03-14T03:20:31;8.40;;;1.23;;
42662;SDS011;44330;51.360;6.686;2023-03-14T03:22:57;7.43;;;1.40;;
42662;SDS011;44330;51.360;6.686;2023-03-14T03:25:23;10.90;;;2.45;;
42662;SDS011;44330;51.360;6.686;2023-03-14T03:27:49;6.45;;;1.58;;
42662;SDS011;44330;51.360;6.686;2023-03-14T03:30:15;8.45;;;1.20;;
42662;SDS011;44330;51.360;6.686;2023-03-14T03:32:41;6.15;;;1.00;;
42662;SDS011;44330;51.360;6.686;2023-03-14T03:35:06;6.88;;;1.30;;
42662;SDS011;44330;51.360;6.686;2023-03-14T03:37:33;8.38;;;1.60;;
42662;SDS011;44330;51.360;6.686;2023-03-14T03:39:59;9.07;;;1.60;;
42662;SDS011;44330;51.360;6.686;2023-03-14T03:42:26;9.18;;;1.50;;
42662;SDS011;44330;51.360;6.686;2023-03-14T03:44:52;4.97;;;1.27;;
42662;SDS011;44330;51.360;6.686;2023-03-14T03:47:18;10.50;;;1.75;;
42662;SDS011;44330;51.360;6.686;2023-03-14T03:49:43;9.60;;;1.40;;
42662;SDS011;44330;51.360;6.686;2023-03-14T03:52:09;9.90;;;1.70;;
42662;SDS011;44330;51.360;6.686;2023-03-14T03:54:35;9.77;;;2.75;;
42662;SDS011;44330;51.360;6.686;2023-03-14T03:57:00;11.15;;;1.90;;
42662;SDS011;44330;51.360;6.686;2023-03-14T03:59:26;3.83;;;1.10;;
42662;SDS011;44330;51.360;6.686;2023-03-14T04:01:52;7.90;;;1.25;;
42662;SDS011;44330;51.360;6.686;2023-03-14T04:04:17;7.97;;;2.15;;
42662;SDS011;44330;51.360;6.686;2023-03-14T04:07:31;6.38;;;1.88;;
42662;SDS011;44330;51.360;6.686;2023-03-14T04:09:57;5.50;;;1.10;;
42662;SDS011;44330;51.360;6.686;2023-03-14T04:12:22;6.03;;;1.10;;
42662;SDS011;44330;51.360;6.686;2023-03-14T04:14:48;4.05;;;0.90;;
42662;SDS011;44330;51.360;6.686;2023-03-14T04:17:14;6.28;;;1.30;;
42662;SDS011;44330;51.360;6.686;2023-03-14T04:19:39;5.43;;;1.48;;
42662;SDS011;44330;51.360;6.686;2023-03-14T04:22:05;7.70;;;1.60;;
42662;SDS011;44330;51.360;6.686;2023-03-14T04:24:31;7.00;;;1.50;;
42662;SDS011;44330;51.360;6.686;2023-03-14T04:26:56;5.38;;;1.10;;
42662;SDS011;44330;51.360;6.686;2023-03-14T04:29:22;7.15;;;1.35;;
42662;SDS011;44330;51.360;6.686;2023-03-14T04:31:48;3.88;;;0.93;;
42662;SDS011;44330;51.360;6.686;2023-03-14T04:34:13;9.23;;;1.30;;
42662;SDS011;44330;51.360;6.686;2023-03-14T04:36:39;6.13;;;1.13;;
42662;SDS011;44330;51.360;6.686;2023-03-14T04:39:04;5.60;;;1.08;;
42662;SDS011;44330;51.360;6.686;2023-03-14T04:41:30;3.85;;;1.00;;
42662;SDS011;44330;51.360;6.686;2023-03-14T04:43:55;4.68;;;1.05;;
42662;SDS011;44330;51.360;6.686;2023-03-14T04:46:21;4.75;;;0.90;;
42662;SDS011;44330;51.360;6.686;2023-03-14T04:48:46;2.83;;;0.70;;
42662;SDS011;44330;51.360;6.686;2023-03-14T04:51:12;5.38;;;1.08;;
42662;SDS011;44330;51.360;6.686;2023-03-14T04:53:37;6.82;;;0.93;;
42662;SDS011;44330;51.360;6.686;2023-03-14T04:56:03;3.85;;;1.08;;
42662;SDS011;44330;51.360;6.686;2023-03-14T04:58:29;2.92;;;0.60;;
42662;SDS011;44330;51.360;6.686;2023-03-14T05:00:55;5.45;;;0.90;;
42662;SDS011;44330;51.360;6.686;2023-03-14T05:03:20;5.00;;;0.70;;
42662;SDS011;44330;51.360;6.686;2023-03-14T05:05:46;1.83;;;0.77;;
42662;SDS011;44330;51.360;6.686;2023-03-14T05:08:57;2.58;;;0.63;;
42662;SDS011;44330;51.360;6.686;2023-03-14T05:11:03;1.60;;;0.40;;
42662;SDS011;44330;51.360;6.686;2023-03-14T05:13:29;8.73;;;0.70;;
42662;SDS011;44330;51.360;6.686;2023-03-14T05:16:02;5.05;;;0.52;;
42662;SDS011;44330;51.360;6.686;2023-03-14T05:18:30;4.25;;;0.57;;
42662;SDS011;44330;51.360;6.686;2023-03-14T05:20:55;1.23;;;0.50;;
42662;SDS011;44330;51.360;6.686;2023-03-14T05:23:21;7.63;;;0.95;;
42662;SDS011;44330;51.360;6.686;2023-03-14T05:25:46;3.22;;;0.95;;
42662;SDS011;44330;51.360;6.686;2023-03-14T05:28:12;2.30;;;0.93;;
42662;SDS011;44330;51.360;6.686;2023-03-14T05:30:37;3.47;;;1.35;;
42662;SDS011;44330;51.360;6.686;2023-03-14T05:33:03;4.63;;;1.63;;
42662;SDS011;44330;51.360;6.686;2023-03-14T05:35:29;7.25;;;1.30;;
42662;SDS011;44330;51.360;6.686;2023-03-14T05:37:54;6.50;;;1.00;;
42662;SDS011;44330;51.360;6.686;2023-03-14T05:40:20;2.88;;;1.02;;
42662;SDS011;44330;51.360;6.686;2023-03-14T05:42:49;4.50;;;1.10;;
42662;SDS011;44330;51.360;6.686;2023-03-14T05:45:14;6.47;;;0.98;;
42662;SDS011;44330;51.360;6.686;2023-03-14T05:47:40;5.97;;;0.93;;
42662;SDS011;44330;51.360;6.686;2023-03-14T05:50:06;8.60;;;1.35;;
42662;SDS011;44330;51.360;6.686;2023-03-14T05:52:34;7.38;;;1.10;;
42662;SDS011;44330;51.360;6.686;2023-03-14T05:55:00;1.90;;;0.95;;
42662;SDS011;44330;51.360;6.686;2023-03-14T05:57:25;4.07;;;0.90;;
42662;SDS011;44330;51.360;6.686;2023-03-14T05:59:51;2.00;;;1.00;;
42662;SDS011;44330;51.360;6.686;2023-03-14T06:02:16;5.95;;;1.10;;
42662;SDS011;44330;51.360;6.686;2023-03-14T06:04:42;3.92;;;1.10;;
42662;SDS011;44330;51.360;6.686;2023-03-14T06:07:08;3.63;;;1.00;;
42662;SDS011;44330;51.360;6.686;2023-03-14T06:09:36;3.67;;;1.00;;
42662;SDS011;44330;51.360;6.686;2023-03-14T06:12:03;4.13;;;1.30;;
42662;SDS011;44330;51.360;6.686;2023-03-14T06:14:28;2.85;;;0.98;;
42662;SDS011;44330;51.360;6.686;2023-03-14T06:16:54;3.28;;;0.70;;
42662;SDS011;44330;51.360;6.686;2023-03-14T06:19:19;1.00;;;0.60;;
42662;SDS011;44330;51.360;6.686;2023-03-14T06:21:45;2.42;;;0.60;;
42662;SDS011;44330;51.360;6.686;2023-03-14T06:24:11;3.60;;;0.68;;
42662;SDS011;44330;51.360;6.686;2023-03-14T06:26:36;4.78;;;0.60;;
42662;SDS011;44330;51.360;6.686;2023-03-14T06:29:02;2.03;;;0.50;;
42662;SDS011;44330;51.360;6.686;2023-03-14T06:31:31;3.08;;;0.50;;
42662;SDS011;44330;51.360;6.686;2023-03-14T06:33:59;3.15;;;0.40;;
42662;SDS011;44330;51.360;6.686;2023-03-14T06:36:25;2.92;;;0.40;;
42662;SDS011;44330;51.360;6.686;2023-03-14T06:38:51;1.52;;;0.50;;
42662;SDS011;44330;51.360;6.686;2023-03-14T06:41:16;1.50;;;0.50;;
42662;SDS011;44330;51.360;6.686;2023-03-14T06:43:42;1.88;;;0.60;;
42662;SDS011;44330;51.360;6.686;2023-03-14T06:46:08;3.38;;;0.50;;
42662;SDS011;44330;51.360;6.686;2023-03-14T06:48:33;1.38;;;0.40;;
42662;SDS011;44330;51.360;6.686;2023-03-14T06:50:59;1.13;;;0.20;;
42662;SDS011;44330;51.360;6.686;2023-03-14T06:53:24;3.40;;;0.60;;
42662;SDS011;44330;51.360;6.686;2023-03-14T06:55:50;2.33;;;0.50;;
42662;SDS011;44330;51.360;6.686;2023-03-14T06:58:16;2.35;;;0.60;;
42662;SDS011;44330;51.360;6.686;2023-03-14T07:00:44;1.63;;;0.63;;
42662;SDS011;44330;51.360;6.686;2023-03-14T07:03:25;2.38;;;0.60;;
42662;SDS011;44330;51.360;6.686;2023-03-14T07:06:16;2.38;;;1.00;;
42662;SDS011;44330;51.360;6.686;2023-03-14T07:09:01;1.65;;;0.50;;
42662;SDS011;44330;51.360;6.686;2023-03-14T07:12:40;2.67;;;0.57;;
42662;SDS011;44330;51.360;6.686;2023-03-14T07:14:56;1.65;;;0.60;;
42662;SDS011;44330;51.360;6.686;2023-03-14T07:17:24;1.00;;;0.43;;
42662;SDS011;44330;51.360;6.686;2023-03-14T07:19:50;1.33;;;0.60;;
42662;SDS011;44330;51.360;6.686;2023-03-14T07:22:15;1.52;;;0.50;;
42662;SDS011;44330;51.360;6.686;2023-03-14T07:24:41;3.55;;;0.70;;
42662;SDS011;44330;51.360;6.686;2023-03-14T07:27:06;2.50;;;0.68;;
42662;SDS011;44330;51.360;6.686;2023-03-14T07:29:32;2.47;;;0.60;;
42662;SDS011;44330;51.360;6.686;2023-03-14T07:31:58;1.77;;;0.75;;
42662;SDS011;44330;51.360;6.686;2023-03-14T07:34:23;1.98;;;0.75;;
42662;SDS011;44330;51.360;6.686;2023-03-14T07:36:49;3.65;;;0.80;;
42662;SDS011;44330;51.360;6.686;2023-03-14T07:39:19;1.95;;;0.52;;
42662;SDS011;44330;51.360;6.686;2023-03-14T07:41:45;3.28;;;0.70;;
42662;SDS011;44330;51.360;6.686;2023-03-14T07:44:11;3.30;;;1.10;;
42662;SDS011;44330;51.360;6.686;2023-03-14T07:46:36;5.03;;;1.48;;
42662;SDS011;44330;51.360;6.686;2023-03-14T07:49:02;2.13;;;1.65;;
42662;SDS011;44330;51.360;6.686;2023-03-14T07:51:27;1.63;;;1.10;;
42662;SDS011;44330;51.360;6.686;2023-03-14T07:53:53;1.73;;;1.02;;
42662;SDS011;44330;51.360;6.686;2023-03-14T07:56:19;1.95;;;1.20;;
42662;SDS011;44330;51.360;6.686;2023-03-14T07:58:44;3.42;;;1.00;;
42662;SDS011;44330;51.360;6.686;2023-03-14T08:01:10;4.97;;;1.48;;
42662;SDS011;44330;51.360;6.686;2023-03-14T08:03:35;5.35;;;1.17;;
42662;SDS011;44330;51.360;6.686;2023-03-14T08:06:01;5.82;;;1.63;;
42662;SDS011;44330;51.360;6.686;2023-03-14T08:08:26;4.15;;;1.50;;
42662;SDS011;44330;51.360;6.686;2023-03-14T08:10:52;3.65;;;1.70;;
42662;SDS011;44330;51.360;6.686;2023-03-14T08:13:17;4.40;;;1.92;;
42662;SDS011;44330;51.360;6.686;2023-03-14T08:15:46;4.90;;;2.10;;
42662;SDS011;44330;51.360;6.686;2023-03-14T08:18:14;9.20;;;2.33;;
42662;SDS011;44330;51.360;6.686;2023-03-14T08:20:40;2.50;;;1.27;;
42662;SDS011;44330;51.360;6.686;2023-03-14T08:23:05;4.13;;;1.48;;
42662;SDS011;44330;51.360;6.686;2023-03-14T08:25:31;1.60;;;1.38;;
42662;SDS011;44330;51.360;6.686;2023-03-14T08:27:57;1.98;;;1.48;;
42662;SDS011;44330;51.360;6.686;2023-03-14T08:30:22;3.15;;;1.67;;
42662;SDS011;44330;51.360;6.686;2023-03-14T08:32:48;3.53;;;1.63;;
42662;SDS011;44330;51.360;6.686;2023-03-14T08:35:14;2.70;;;1.70;;
42662;SDS011;44330;51.360;6.686;2023-03-14T08:37:40;3.88;;;2.00;;
42662;SDS011;44330;51.360;6.686;2023-03-14T08:40:06;5.93;;;1.77;;
42662;SDS011;44330;51.360;6.686;2023-03-14T08:42:33;2.72;;;1.80;;
42662;SDS011;44330;51.360;6.686;2023-03-14T08:44:59;6.30;;;1.80;;
42662;SDS011;44330;51.360;6.686;2023-03-14T08:47:25;2.42;;;1.20;;
42662;SDS011;44330;51.360;6.686;2023-03-14T08:49:50;4.03;;;0.82;;
42662;SDS011;44330;51.360;6.686;2023-03-14T08:52:16;1.60;;;0.90;;
42662;SDS011;44330;51.360;6.686;2023-03-14T08:54:45;3.92;;;1.40;;
42662;SDS011;44330;51.360;6.686;2023-03-14T08:57:10;3.25;;;1.02;;
42662;SDS011;44330;51.360;6.686;2023-03-14T08:59:36;3.13;;;1.40;;
42662;SDS011;44330;51.360;6.686;2023-03-14T09:02:02;3.83;;;1.70;;
42662;SDS011;44330;51.360;6.686;2023-03-14T09:04:31;2.67;;;1.40;;
42662;SDS011;44330;51.360;6.686;2023-03-14T09:06:57;1.67;;;1.38;;
42662;SDS011;44330;51.360;6.686;2023-03-14T09:09:24;4.90;;;1.60;;
42662;SDS011;44330;51.360;6.686;2023-03-14T09:14:56;0.47;;;0.35;;
42662;SDS011;44330;51.360;6.686;2023-03-14T09:17:21;1.13;;;0.32;;
42662;SDS011;44330;51.360;6.686;2023-03-14T09:19:47;1.02;;;0.47;;
42662;SDS011;44330;51.360;6.686;2023-03-14T09:30:21;1.90;;;0.60;;
42662;SDS011;44330;51.360;6.686;2023-03-14T09:32:47;0.95;;;0.80;;
42662;SDS011;44330;51.360;6.686;2023-03-14T09:35:12;0.50;;;0.50;;
42662;SDS011;44330;51.360;6.686;2023-03-14T09:37:38;3.20;;;0.75;;
42662;SDS011;44330;51.360;6.686;2023-03-14T09:40:04;0.80;;;0.75;;
42662;SDS011;44330;51.360;6.686;2023-03-14T09:42:35;2.20;;;1.33;;
42662;SDS011;44330;51.360;6.686;2023-03-14T09:45:04;3.58;;;1.23;;
42662;SDS011;44330;51.360;6.686;2023-03-14T09:47:36;2.75;;;1.27;;
42662;SDS011;44330;51.360;6.686;2023-03-14T09:50:01;1.10;;;0.75;;
42662;SDS011;44330;51.360;6.686;2023-03-14T09:52:32;1.77;;;1.30;;
42662;SDS011;44330;51.360;6.686;2023-03-14T09:55:02;2.92;;;1.77;;
42662;SDS011;44330;51.360;6.686;2023-03-14T09:57:30;3.45;;;1.70;;
42662;SDS011;44330;51.360;6.686;2023-03-14T10:00:00;1.33;;;1.23;;
42662;SDS011;44330;51.360;6.686;2023-03-14T10:02:38;2.88;;;1.63;;
42662;SDS011;44330;51.360;6.686;2023-03-14T10:05:16;5.82;;;2.60;;
42662;SDS011;44330;51.360;6.686;2023-03-14T10:07:43;4.72;;;2.70;;
42662;SDS011;44330;51.360;6.686;2023-03-14T10:10:30;4.28;;;2.50;;
42662;SDS011;44330;51.360;6.686;2023-03-14T10:12:59;2.22;;;1.63;;
42662;SDS011;44330;51.360;6.686;2023-03-14T10:15:33;3.38;;;1.90;;
42662;SDS011;44330;51.360;6.686;2023-03-14T10:18:00;6.45;;;2.00;;
42662;SDS011;44330;51.360;6.686;2023-03-14T10:20:34;4.93;;;2.38;;
42662;SDS011;44330;51.360;6.686;2023-03-14T10:23:04;2.30;;;2.10;;
42662;SDS011;44330;51.360;6.686;2023-03-14T10:25:33;3.70;;;2.45;;
42662;SDS011;44330;51.360;6.686;2023-03-14T10:28:00;3.90;;;2.00;;
42662;SDS011;44330;51.360;6.686;2023-03-14T10:33:01;1.77;;;1.10;;
42662;SDS011;44330;51.360;6.686;2023-03-14T10:35:34;6.65;;;2.10;;
42662;SDS011;44330;51.360;6.686;2023-03-14T10:38:01;7.07;;;2.72;;
42662;SDS011;44330;51.360;6.686;2023-03-14T10:40:30;10.57;;;4.75;;
42662;SDS011;44330;51.360;6.686;2023-03-14T10:42:58;10.43;;;3.63;;
42662;SDS011;44330;51.360;6.686;2023-03-14T10:45:41;6.35;;;3.28;;
42662;SDS011;44330;51.360;6.686;2023-03-14T10:50:55;7.35;;;3.13;;
42662;SDS011;44330;51.360;6.686;2023-03-14T10:53:26;8.52;;;3.63;;
42662;SDS011;44330;51.360;6.686;2023-03-14T10:55:57;7.43;;;2.30;;
42662;SDS011;44330;51.360;6.686;2023-03-14T10:58:28;3.35;;;0.85;;
42662;SDS011;44330;51.360;6.686;2023-03-14T12:10:42;3.28;;;1.02;;
42662;SDS011;44330;51.360;6.686;2023-03-14T12:13:17;7.25;;;0.82;;
42662;SDS011;44330;51.360;6.686;2023-03-14T12:15:55;7.25;;;1.23;;
42662;SDS011;44330;51.360;6.686;2023-03-14T12:18:26;11.20;;;1.77;;
42662;SDS011;44330;51.360;6.686;2023-03-14T12:20:59;7.68;;;1.33;;
42662;SDS011;44330;51.360;6.686;2023-03-14T12:23:28;10.50;;;2.40;;
42662;SDS011;44330;51.360;6.686;2023-03-14T12:26:12;10.73;;;1.77;;
42662;SDS011;44330;51.360;6.686;2023-03-14T12:28:50;11.07;;;1.50;;
42662;SDS011;44330;51.360;6.686;2023-03-14T12:34:04;8.38;;;2.30;;
42662;SDS011;44330;51.360;6.686;2023-03-14T12:37:50;10.15;;;2.35;;
42662;SDS011;44330;51.360;6.686;2023-03-14T12:40:06;8.32;;;1.40;;
42662;SDS011;44330;51.360;6.686;2023-03-14T12:43:01;11.75;;;2.58;;
42662;SDS011;44330;51.360;6.686;2023-03-14T12:45:32;11.45;;;3.60;;
42662;SDS011;44330;51.360;6.686;2023-03-14T12:50:33;12.02;;;3.10;;
42662;SDS011;44330;51.360;6.686;2023-03-14T13:01:02;15.20;;;3.17;;
42662;SDS011;44330;51.360;6.686;2023-03-14T13:03:37;15.43;;;2.33;;
42662;SDS011;44330;51.360;6.686;2023-03-14T13:06:08;20.23;;;2.88;;
42662;SDS011;44330;51.360;6.686;2023-03-14T13:11:09;19.58;;;3.05;;
42662;SDS011;44330;51.360;6.686;2023-03-14T13:13:40;16.70;;;2.65;;
42662;SDS011;44330;51.360;6.686;2023-03-14T13:16:10;18.15;;;3.53;;
42662;SDS011;44330;51.360;6.686;2023-03-14T13:18:48;26.77;;;3.47;;
42662;SDS011;44330;51.360;6.686;2023-03-14T13:21:22;22.35;;;4.00;;
42662;SDS011;44330;51.360;6.686;2023-03-14T13:23:57;16.90;;;2.95;;
42662;SDS011;44330;51.360;6.686;2023-03-14T13:26:24;15.68;;;2.30;;
42662;SDS011;44330;51.360;6.686;2023-03-14T13:28:56;14.02;;;1.92;;
42662;SDS011;44330;51.360;6.686;2023-03-14T13:31:23;18.90;;;2.30;;
42662;SDS011;44330;51.360;6.686;2023-03-14T13:34:00;13.80;;;2.53;;
42662;SDS011;44330;51.360;6.686;2023-03-14T13:36:27;14.02;;;2.38;;
42662;SDS011;44330;51.360;6.686;2023-03-14T13:38:57;19.30;;;2.45;;
42662;SDS011;44330;51.360;6.686;2023-03-14T13:41:27;19.20;;;2.67;;
42662;SDS011;44330;51.360;6.686;2023-03-14T13:43:58;18.73;;;3.53;;
42662;SDS011;44330;51.360;6.686;2023-03-14T13:46:30;17.05;;;2.65;;
42662;SDS011;44330;51.360;6.686;2023-03-14T13:49:03;15.93;;;2.90;;
42662;SDS011;44330;51.360;6.686;2023-03-14T13:51:31;17.35;;;2.95;;
42662;SDS011;44330;51.360;6.686;2023-03-14T13:54:00;20.50;;;2.75;;
42662;SDS011;44330;51.360;6.686;2023-03-14T13:56:29;22.92;;;3.58;;
42662;SDS011;44330;51.360;6.686;2023-03-14T13:58:56;21.02;;;2.95;;
42662;SDS011;44330;51.360;6.686;2023-03-14T14:01:23;21.42;;;3.00;;
42662;SDS011;44330;51.360;6.686;2023-03-14T14:03:53;17.13;;;3.30;;
42662;SDS011;44330;51.360;6.686;2023-03-14T14:06:44;14.60;;;2.42;;
42662;SDS011;44330;51.360;6.686;2023-03-14T14:09:16;22.75;;;3.88;;
42662;SDS011;44330;51.360;6.686;2023-03-14T14:14:18;21.83;;;3.10;;
42662;SDS011;44330;51.360;6.686;2023-03-14T14:16:49;13.63;;;2.35;;
42662;SDS011;44330;51.360;6.686;2023-03-14T14:19:16;17.88;;;2.03;;
42662;SDS011;44330;51.360;6.686;2023-03-14T14:21:43;10.57;;;1.73;;
42662;SDS011;44330;51.360;6.686;2023-03-14T14:24:17;10.05;;;1.73;;
42662;SDS011;44330;51.360;6.686;2023-03-14T14:26:54;16.65;;;2.15;;
42662;SDS011;44330;51.360;6.686;2023-03-14T14:29:33;6.68;;;1.67;;
42662;SDS011;44330;51.360;6.686;2023-03-14T14:32:13;9.50;;;1.60;;
42662;SDS011;44330;51.360;6.686;2023-03-14T14:35:00;10.63;;;2.10;;
42662;SDS011;44330;51.360;6.686;2023-03-14T14:37:32;10.80;;;1.70;;
42662;SDS011;44330;51.360;6.686;2023-03-14T14:42:38;5.43;;;1.50;;
42662;SDS011;44330;51.360;6.686;2023-03-14T14:45:05;7.80;;;1.80;;
42662;SDS011;44330;51.360;6.686;2023-03-14T14:47:47;7.18;;;1.58;;
42662;SDS011;44330;51.360;6.686;2023-03-14T14:51:00;6.80;;;1.60;;
42662;SDS011;44330;51.360;6.686;2023-03-14T14:53:31;12.02;;;1.50;;
42662;SDS011;44330;51.360;6.686;2023-03-14T14:56:24;12.02;;;2.15;;
42662;SDS011;44330;51.360;6.686;2023-03-14T14:58:58;10.57;;;1.73;;
42662;SDS011;44330;51.360;6.686;2023-03-14T15:01:30;6.80;;;1.35;;
42662;SDS011;44330;51.360;6.686;2023-03-14T15:04:01;10.55;;;1.70;;
42662;SDS011;44330;51.360;6.686;2023-03-14T15:06:34;19.85;;;1.83;;
42662;SDS011;44330;51.360;6.686;2023-03-14T15:08:59;8.65;;;1.15;;
42662;SDS011;44330;51.360;6.686;2023-03-14T15:11:26;6.47;;;1.33;;
42662;SDS011;44330;51.360;6.686;2023-03-14T15:13:52;8.73;;;1.10;;
42662;SDS011;44330;51.360;6.686;2023-03-14T15:16:19;9.40;;;2.50;;
42662;SDS011;44330;51.360;6.686;2023-03-14T15:21:15;10.95;;;1.67;;
42662;SDS011;44330;51.360;6.686;2023-03-14T15:23:40;16.55;;;1.92;;
42662;SDS011;44330;51.360;6.686;2023-03-14T15:26:13;13.30;;;1.98;;
42662;SDS011;44330;51.360;6.686;2023-03-14T15:28:40;16.65;;;1.70;;
42662;SDS011;44330;51.360;6.686;2023-03-14T15:31:10;7.03;;;1.15;;
42662;SDS011;44330;51.360;6.686;2023-03-14T15:33:36;8.27;;;1.60;;
42662;SDS011;44330;51.360;6.686;2023-03-14T15:36:02;7.30;;;1.25;;
42662;SDS011;44330;51.360;6.686;2023-03-14T15:38:29;8.65;;;1.15;;
42662;SDS011;44330;51.360;6.686;2023-03-14T15:40:54;6.72;;;1.30;;
42662;SDS011;44330;51.360;6.686;2023-03-14T15:43:20;13.63;;;1.65;;
42662;SDS011;44330;51.360;6.686;2023-03-14T15:45:46;8.25;;;1.20;;
42662;SDS011;44330;51.360;6.686;2023-03-14T15:48:14;8.00;;;2.00;;
42662;SDS011;44330;51.360;6.686;2023-03-14T15:50:44;11.68;;;1.92;;
42662;SDS011;44330;51.360;6.686;2023-03-14T15:53:10;10.80;;;1.67;;
42662;SDS011;44330;51.360;6.686;2023-03-14T15:55:36;11.75;;;1.70;;
42662;SDS011;44330;51.360;6.686;2023-03-14T15:58:02;8.73;;;1.52;;
42662;SDS011;44330;51.360;6.686;2023-03-14T16:00:28;12.00;;;2.35;;
42662;SDS011;44330;51.360;6.686;2023-03-14T16:02:55;10.48;;;1.88;;
42662;SDS011;44330;51.360;6.686;2023-03-14T16:05:21;16.42;;;2.83;;
42662;SDS011;44330;51.360;6.686;2023-03-14T16:07:47;10.82;;;2.75;;
42662;SDS011;44330;51.360;6.686;2023-03-14T16:10:14;10.07;;;3.20;;
42662;SDS011;44330;51.360;6.686;2023-03-14T16:12:40;10.15;;;2.15;;
42662;SDS011;44330;51.360;6.686;2023-03-14T16:15:07;15.68;;;2.17;;
42662;SDS011;44330;51.360;6.686;2023-03-14T16:17:34;10.82;;;2.40;;
42662;SDS011;44330;51.360;6.686;2023-03-14T16:19:59;12.68;;;2.72;;
42662;SDS011;44330;51.360;6.686;2023-03-14T16:22:28;6.90;;;1.63;;
42662;SDS011;44330;51.360;6.686;2023-03-14T16:24:58;10.20;;;1.73;;
42662;SDS011;44330;51.360;6.686;2023-03-14T16:27:24;12.13;;;1.48;;
42662;SDS011;44330;51.360;6.686;2023-03-14T16:29:49;10.20;;;2.03;;
42662;SDS011;44330;51.360;6.686;2023-03-14T16:32:15;9.95;;;2.08;;
42662;SDS011;44330;51.360;6.686;2023-03-14T16:34:40;8.10;;;1.52;;
42662;SDS011;44330;51.360;6.686;2023-03-14T16:37:06;8.05;;;1.95;;
42662;SDS011;44330;51.360;6.686;2023-03-14T16:39:32;6.63;;;1.60;;
42662;SDS011;44330;51.360;6.686;2023-03-14T16:41:58;9.00;;;1.40;;
42662;SDS011;44330;51.360;6.686;2023-03-14T16:44:23;9.73;;;2.22;;
42662;SDS011;44330;51.360;6.686;2023-03-14T16:46:49;12.38;;;3.58;;
42662;SDS011;44330;51.360;6.686;2023-03-14T16:49:15;11.43;;;3.22;;